Nordic Philip — 5BZH2 — position and weather

sailwx.info

Track history (hours):
 
Tides and Currents Weather Stations Pressure Air Temp Water Temp Dewpoint Dewpoint Depression Visibility Wind Speed Wind Dir Waves Ship Positions

Nordic Philip

Last reported at 2016-May-21 22:24 UTC. Time now 2016-May-29 07:46 UTC.
Position N 55°54' E 016°16'.

Length 151 m; draft 6.4 m.

Type: Ship (hazmat cat A). MMSI: 212018000.

Date/timePositionNaut miles runAvg speedWind from/ knotsBaromVisibWave heightAir tempDewpointWater temp
2016-May-21 22:24N 55°54' E 016°16'1214.2
2016-May-21 21:33N 55°48' E 015°57'1414.2
2016-May-21 20:33N 55°41' E 015°35'1414.1
2016-May-21 19:34N 55°35' E 015°13'1414.1
2016-May-21 18:34N 55°27' E 014°52'1414.0
2016-May-21 17:33N 55°19' E 014°33'1414.3
2016-May-21 16:34N 55°09' E 014°14'1514.9
2016-May-21 15:34N 55°10' E 013°48'1414.3
2016-May-21 14:34N 55°11' E 013°23'1414.4
2016-May-21 13:33N 55°14' E 012°58'1313.0
2016-May-21 12:34N 55°20' E 012°38'1312.7
2016-May-21 11:34N 55°32' E 012°42'9 9.2
2016-May-21 10:33N 55°42' E 012°41'3 3.0
2016-May-21 09:33N 55°43' E 012°36'0 0.0
2016-May-21 08:33N 55°43' E 012°36'0 0.0
2016-May-21 07:33N 55°43' E 012°36'0 0.0
2016-May-21 04:15N 55°43' E 012°36'0 0.0
2016-May-21 03:33N 55°43' E 012°36'0 0.0
2016-May-21 02:33N 55°43' E 012°36'0 0.0
2016-May-21 01:33N 55°43' E 012°36'0 0.0
2016-May-21 00:33N 55°43' E 012°36'0 0.0
2016-May-20 23:33N 55°43' E 012°36'0 0.0
2016-May-20 22:33N 55°43' E 012°36'0 0.0
2016-May-20 21:33N 55°43' E 012°36'0 0.0
2016-May-20 20:33N 55°43' E 012°36'3 3.1
2016-May-20 19:33N 55°41' E 012°41'10 9.5
2016-May-20 18:33N 55°32' E 012°43'9 8.7
2016-May-20 17:33N 55°24' E 012°41'1212.4
2016-May-20 16:34N 55°11' E 012°40'1717.0
2016-May-20 15:33N 54°54' E 012°36'3416.9
2016-May-20 13:33N 54°25' E 012°08'1616.5
2016-May-20 12:34N 54°27' E 011°40'1616.4
2016-May-20 11:34N 54°34' E 011°14'1716.7
2016-May-20 10:34N 54°34' E 010°46'1616.1
2016-May-20 09:33N 54°30' E 010°19'10 9.8
2016-May-20 08:33N 54°22' E 010°08'3 3.4
2016-May-20 07:33N 54°22' E 010°02'7 7.4
2016-May-20 06:34N 54°22' E 009°50'4 4.2
2016-May-20 05:33N 54°20' E 009°43'6 5.8
2016-May-20 04:33N 54°15' E 009°37'7 7.5
2016-May-20 03:33N 54°11' E 009°27'8 7.4
2016-May-20 02:32N 54°05' E 009°19'8 7.9
2016-May-20 01:34N 53°57' E 009°15'5 5.1
2016-May-20 00:34N 53°54' E 009°09'5 4.6
2016-May-19 23:33N 53°52' E 009°02'1414.4
2016-May-19 22:34N 53°56' E 008°39'1616.5
2016-May-19 21:33N 53°59' E 008°11'1211.8
2016-May-19 20:33N 53°52' E 007°56'1413.7
2016-May-19 19:33N 53°44' E 008°15'1313.0
2016-May-19 18:33N 53°35' E 008°31'0 0.1
2016-May-19 17:32N 53°35' E 008°32'0 0.0
2016-May-19 16:32N 53°35' E 008°32'0 0.0
2016-May-19 15:32N 53°35' E 008°32'0 0.0
2016-May-19 14:32N 53°35' E 008°32'0 0.0
2016-May-19 13:32N 53°35' E 008°32'0 0.0
2016-May-19 12:32N 53°35' E 008°32'0 0.0
2016-May-19 11:32N 53°35' E 008°32'0 0.0
2016-May-19 10:32N 53°35' E 008°32'0 0.0
2016-May-19 09:32N 53°35' E 008°32'0 0.0
2016-May-19 08:32N 53°35' E 008°32'0 0.0
2016-May-19 07:32N 53°35' E 008°32'0 0.0
2016-May-19 06:32N 53°35' E 008°32'0 0.0
2016-May-19 05:34N 53°35' E 008°32'8 8.4
2016-May-19 04:33N 53°41' E 008°21'1514.9
2016-May-19 03:33N 53°50' E 008°02'8 7.9
2016-May-19 02:33N 53°58' E 008°01'1413.6
2016-May-19 01:33N 53°59' E 008°24'1615.9
2016-May-19 00:34N 53°51' E 008°46'1414.3
2016-May-18 23:33N 53°53' E 009°11'1010.4
2016-May-18 22:33N 53°46' E 009°24'1110.9
2016-May-18 21:34N 53°37' E 009°34'1111.1
2016-May-18 20:33N 53°33' E 009°51'3 2.7
2016-May-18 19:31N 53°32' E 009°55'0 0.0
2016-May-18 18:31N 53°32' E 009°55'0 0.0
2016-May-18 17:31N 53°32' E 009°55'0 0.0
2016-May-18 16:31N 53°32' E 009°55'0 0.0
2016-May-18 15:31N 53°32' E 009°55'0 0.0
2016-May-18 14:31N 53°32' E 009°55'0 0.0
2016-May-18 13:31N 53°32' E 009°55'0 0.0
2016-May-18 12:31N 53°32' E 009°55'0 0.0
2016-May-18 11:31N 53°32' E 009°55'0 0.0
2016-May-18 10:32N 53°32' E 009°55'0 0.0
2016-May-18 09:33N 53°32' E 009°55'0 0.2
2016-May-18 08:33N 53°32' E 009°55'0 0.0
2016-May-18 07:33N 53°32' E 009°55'0 0.0
2016-May-18 06:33N 53°32' E 009°55'1 0.7
2016-May-18 05:33N 53°32' E 009°54'2 2.3
2016-May-18 04:32N 53°30' E 009°56'0 0.0
2016-May-18 03:32N 53°30' E 009°56'0 0.0
2016-May-18 02:29N 53°30' E 009°56'0 0.0
2016-May-18 01:32N 53°30' E 009°56'0 0.0
2016-May-18 00:32N 53°30' E 009°56'0 0.0
2016-May-17 23:32N 53°30' E 009°56'0 0.3
2016-May-17 22:32N 53°30' E 009°56'2 2.2
2016-May-17 21:29N 53°32' E 009°57'0 0.0
2016-May-17 20:33N 53°32' E 009°57'0 0.0
2016-May-17 19:33N 53°32' E 009°57'0 0.0
2016-May-17 18:33N 53°32' E 009°57'0 0.0
2016-May-17 17:32N 53°32' E 009°57'0 0.0
2016-May-17 16:29N 53°32' E 009°57'0 0.0
2016-May-17 15:33N 53°32' E 009°57'1 1.3
2016-May-17 14:34N 53°33' E 009°55'7 7.0
2016-May-17 13:33N 53°34' E 009°43'9 9.1
2016-May-17 12:33N 53°39' E 009°31'9 9.1
2016-May-17 11:33N 53°47' E 009°23'8 8.1
2016-May-17 10:33N 53°53' E 009°13'3 2.8
2016-May-17 09:33N 53°54' E 009°09'6 6.1
2016-May-17 08:33N 53°58' E 009°16'8 8.3
2016-May-17 07:32N 54°06' E 009°20'5 4.8
2016-May-17 06:31N 54°10' E 009°25'15 7.5
2016-May-17 04:32N 54°20' E 009°44'7 7.5
2016-May-17 03:33N 54°20' E 009°57'7 6.7
2016-May-17 02:33N 54°22' E 010°08'2 2.0
2016-May-17 01:33N 54°23' E 010°11'1110.9
2016-May-17 00:33N 54°32' E 010°22'1 0.8
2016-May-16 23:14N 54°33' E 010°21'0 0.0
2016-May-16 22:32N 54°32' E 010°21'0 0.0
2016-May-16 21:32N 54°32' E 010°21'2 2.0
2016-May-16 20:33N 54°33' E 010°24'1313.1
2016-May-16 19:33N 54°35' E 010°46'1312.8
2016-May-16 18:33N 54°36' E 011°08'1312.6
2016-May-16 17:33N 54°31' E 011°28'1313.4
2016-May-16 16:33N 54°26' E 011°49'1313.1
2016-May-16 15:33N 54°28' E 012°12'3114.3
2016-May-16 13:21N 54°55' E 012°38'1417.2
2016-May-16 12:33N 55°09' E 012°38'1515.1
2016-May-16 11:34N 55°24' E 012°39'1212.2
2016-May-16 10:33N 55°36' E 012°42'1313.4
2016-May-16 09:33N 55°49' E 012°42'1312.6
2016-May-16 08:33N 56°02' E 012°42'0 0.1
2016-May-16 07:33N 56°02' E 012°42'0 0.0
2016-May-16 06:33N 56°02' E 012°42'0 0.0
2016-May-16 05:33N 56°02' E 012°42'0 0.0
2016-May-16 04:33N 56°02' E 012°42'0 0.2
2016-May-16 03:33N 56°02' E 012°42'7 6.9
2016-May-16 02:34N 56°06' E 012°32'1111.4
2016-May-16 01:34N 56°12' E 012°15'1212.0
2016-May-16 00:33N 56°08' E 011°55'56 9.4
2016-May-15 18:33N 55°20' E 011°02'1313.0
2016-May-15 17:33N 55°07' E 011°03'1312.7
2016-May-15 16:33N 54°55' E 010°56'1312.7
2016-May-15 15:33N 54°43' E 010°53'1413.7
2016-May-15 14:33N 54°36' E 011°13'1413.7
2016-May-15 13:33N 54°29' E 011°35'1313.3
2016-May-15 12:33N 54°26' E 011°57'1211.4
2016-May-15 11:33N 54°32' E 012°14'5714.3
2016-May-15 07:33N 54°59' E 013°41'1514.6
2016-May-15 06:33N 55°05' E 014°04'1615.6
2016-May-15 05:33N 55°16' E 014°23'1515.5
2016-May-15 04:33N 55°28' E 014°42'1615.5
2016-May-15 03:33N 55°36' E 015°05'  
Track history (hours):
 
Tides and Currents Weather Stations Pressure Air Temp Water Temp Dewpoint Dewpoint Depression Visibility Wind Speed Wind Dir Waves Ship Positions

Nordic Philip

Last reported at 2016-May-21 22:24 UTC. Time now 2016-May-29 07:46 UTC.
Position N 55°54' E 016°16'.

Length 151 m; draft 6.4 m.

Type: Ship (hazmat cat A). MMSI: 212018000.

Date/timePositionNaut miles runAvg speedWind from/ knotsBaromVisibWave heightAir tempDewpointWater temp
2016-May-21 22:24N 55°54' E 016°16'1214.2
2016-May-21 21:33N 55°48' E 015°57'1414.2
2016-May-21 20:33N 55°41' E 015°35'1414.1
2016-May-21 19:34N 55°35' E 015°13'1414.1
2016-May-21 18:34N 55°27' E 014°52'1414.0
2016-May-21 17:33N 55°19' E 014°33'1414.3
2016-May-21 16:34N 55°09' E 014°14'1514.9
2016-May-21 15:34N 55°10' E 013°48'1414.3
2016-May-21 14:34N 55°11' E 013°23'1414.4
2016-May-21 13:33N 55°14' E 012°58'1313.0
2016-May-21 12:34N 55°20' E 012°38'1312.7
2016-May-21 11:34N 55°32' E 012°42'9 9.2
2016-May-21 10:33N 55°42' E 012°41'3 3.0
2016-May-21 09:33N 55°43' E 012°36'0 0.0
2016-May-21 08:33N 55°43' E 012°36'0 0.0
2016-May-21 07:33N 55°43' E 012°36'0 0.0
2016-May-21 04:15N 55°43' E 012°36'0 0.0
2016-May-21 03:33N 55°43' E 012°36'0 0.0
2016-May-21 02:33N 55°43' E 012°36'0 0.0
2016-May-21 01:33N 55°43' E 012°36'0 0.0
2016-May-21 00:33N 55°43' E 012°36'0 0.0
2016-May-20 23:33N 55°43' E 012°36'0 0.0
2016-May-20 22:33N 55°43' E 012°36'0 0.0
2016-May-20 21:33N 55°43' E 012°36'0 0.0
2016-May-20 20:33N 55°43' E 012°36'3 3.1
2016-May-20 19:33N 55°41' E 012°41'10 9.5
2016-May-20 18:33N 55°32' E 012°43'9 8.7
2016-May-20 17:33N 55°24' E 012°41'1212.4
2016-May-20 16:34N 55°11' E 012°40'1717.0
2016-May-20 15:33N 54°54' E 012°36'3416.9
2016-May-20 13:33N 54°25' E 012°08'1616.5
2016-May-20 12:34N 54°27' E 011°40'1616.4
2016-May-20 11:34N 54°34' E 011°14'1716.7
2016-May-20 10:34N 54°34' E 010°46'1616.1
2016-May-20 09:33N 54°30' E 010°19'10 9.8
2016-May-20 08:33N 54°22' E 010°08'3 3.4
2016-May-20 07:33N 54°22' E 010°02'7 7.4
2016-May-20 06:34N 54°22' E 009°50'4 4.2
2016-May-20 05:33N 54°20' E 009°43'6 5.8
2016-May-20 04:33N 54°15' E 009°37'7 7.5
2016-May-20 03:33N 54°11' E 009°27'8 7.4
2016-May-20 02:32N 54°05' E 009°19'8 7.9
2016-May-20 01:34N 53°57' E 009°15'5 5.1
2016-May-20 00:34N 53°54' E 009°09'5 4.6
2016-May-19 23:33N 53°52' E 009°02'1414.4
2016-May-19 22:34N 53°56' E 008°39'1616.5
2016-May-19 21:33N 53°59' E 008°11'1211.8
2016-May-19 20:33N 53°52' E 007°56'1413.7
2016-May-19 19:33N 53°44' E 008°15'1313.0
2016-May-19 18:33N 53°35' E 008°31'0 0.1
2016-May-19 17:32N 53°35' E 008°32'0 0.0
2016-May-19 16:32N 53°35' E 008°32'0 0.0
2016-May-19 15:32N 53°35' E 008°32'0 0.0
2016-May-19 14:32N 53°35' E 008°32'0 0.0
2016-May-19 13:32N 53°35' E 008°32'0 0.0
2016-May-19 12:32N 53°35' E 008°32'0 0.0
2016-May-19 11:32N 53°35' E 008°32'0 0.0
2016-May-19 10:32N 53°35' E 008°32'0 0.0
2016-May-19 09:32N 53°35' E 008°32'0 0.0
2016-May-19 08:32N 53°35' E 008°32'0 0.0
2016-May-19 07:32N 53°35' E 008°32'0 0.0
2016-May-19 06:32N 53°35' E 008°32'0 0.0
2016-May-19 05:34N 53°35' E 008°32'8 8.4
2016-May-19 04:33N 53°41' E 008°21'1514.9
2016-May-19 03:33N 53°50' E 008°02'8 7.9
2016-May-19 02:33N 53°58' E 008°01'1413.6
2016-May-19 01:33N 53°59' E 008°24'1615.9
2016-May-19 00:34N 53°51' E 008°46'1414.3
2016-May-18 23:33N 53°53' E 009°11'1010.4
2016-May-18 22:33N 53°46' E 009°24'1110.9
2016-May-18 21:34N 53°37' E 009°34'1111.1
2016-May-18 20:33N 53°33' E 009°51'3 2.7
2016-May-18 19:31N 53°32' E 009°55'0 0.0
2016-May-18 18:31N 53°32' E 009°55'0 0.0
2016-May-18 17:31N 53°32' E 009°55'0 0.0
2016-May-18 16:31N 53°32' E 009°55'0 0.0
2016-May-18 15:31N 53°32' E 009°55'0 0.0
2016-May-18 14:31N 53°32' E 009°55'0 0.0
2016-May-18 13:31N 53°32' E 009°55'0 0.0
2016-May-18 12:31N 53°32' E 009°55'0 0.0
2016-May-18 11:31N 53°32' E 009°55'0 0.0
2016-May-18 10:32N 53°32' E 009°55'0 0.0
2016-May-18 09:33N 53°32' E 009°55'0 0.2
2016-May-18 08:33N 53°32' E 009°55'0 0.0
2016-May-18 07:33N 53°32' E 009°55'0 0.0
2016-May-18 06:33N 53°32' E 009°55'1 0.7
2016-May-18 05:33N 53°32' E 009°54'2 2.3
2016-May-18 04:32N 53°30' E 009°56'0 0.0
2016-May-18 03:32N 53°30' E 009°56'0 0.0
2016-May-18 02:29N 53°30' E 009°56'0 0.0
2016-May-18 01:32N 53°30' E 009°56'0 0.0
2016-May-18 00:32N 53°30' E 009°56'0 0.0
2016-May-17 23:32N 53°30' E 009°56'0 0.3
2016-May-17 22:32N 53°30' E 009°56'2 2.2
2016-May-17 21:29N 53°32' E 009°57'0 0.0
2016-May-17 20:33N 53°32' E 009°57'0 0.0
2016-May-17 19:33N 53°32' E 009°57'0 0.0
2016-May-17 18:33N 53°32' E 009°57'0 0.0
2016-May-17 17:32N 53°32' E 009°57'0 0.0
2016-May-17 16:29N 53°32' E 009°57'0 0.0
2016-May-17 15:33N 53°32' E 009°57'1 1.3
2016-May-17 14:34N 53°33' E 009°55'7 7.0
2016-May-17 13:33N 53°34' E 009°43'9 9.1
2016-May-17 12:33N 53°39' E 009°31'9 9.1
2016-May-17 11:33N 53°47' E 009°23'8 8.1
2016-May-17 10:33N 53°53' E 009°13'3 2.8
2016-May-17 09:33N 53°54' E 009°09'6 6.1
2016-May-17 08:33N 53°58' E 009°16'8 8.3
2016-May-17 07:32N 54°06' E 009°20'5 4.8
2016-May-17 06:31N 54°10' E 009°25'15 7.5
2016-May-17 04:32N 54°20' E 009°44'7 7.5
2016-May-17 03:33N 54°20' E 009°57'7 6.7
2016-May-17 02:33N 54°22' E 010°08'2 2.0
2016-May-17 01:33N 54°23' E 010°11'1110.9
2016-May-17 00:33N 54°32' E 010°22'1 0.8
2016-May-16 23:14N 54°33' E 010°21'0 0.0
2016-May-16 22:32N 54°32' E 010°21'0 0.0
2016-May-16 21:32N 54°32' E 010°21'2 2.0
2016-May-16 20:33N 54°33' E 010°24'1313.1
2016-May-16 19:33N 54°35' E 010°46'1312.8
2016-May-16 18:33N 54°36' E 011°08'1312.6
2016-May-16 17:33N 54°31' E 011°28'1313.4
2016-May-16 16:33N 54°26' E 011°49'1313.1
2016-May-16 15:33N 54°28' E 012°12'3114.3
2016-May-16 13:21N 54°55' E 012°38'1417.2
2016-May-16 12:33N 55°09' E 012°38'1515.1
2016-May-16 11:34N 55°24' E 012°39'1212.2
2016-May-16 10:33N 55°36' E 012°42'1313.4
2016-May-16 09:33N 55°49' E 012°42'1312.6
2016-May-16 08:33N 56°02' E 012°42'0 0.1
2016-May-16 07:33N 56°02' E 012°42'0 0.0
2016-May-16 06:33N 56°02' E 012°42'0 0.0
2016-May-16 05:33N 56°02' E 012°42'0 0.0
2016-May-16 04:33N 56°02' E 012°42'0 0.2
2016-May-16 03:33N 56°02' E 012°42'7 6.9
2016-May-16 02:34N 56°06' E 012°32'1111.4
2016-May-16 01:34N 56°12' E 012°15'1212.0
2016-May-16 00:33N 56°08' E 011°55'56 9.4
2016-May-15 18:33N 55°20' E 011°02'1313.0
2016-May-15 17:33N 55°07' E 011°03'1312.7
2016-May-15 16:33N 54°55' E 010°56'1312.7
2016-May-15 15:33N 54°43' E 010°53'1413.7
2016-May-15 14:33N 54°36' E 011°13'1413.7
2016-May-15 13:33N 54°29' E 011°35'1313.3
2016-May-15 12:33N 54°26' E 011°57'1211.4
2016-May-15 11:33N 54°32' E 012°14'5714.3
2016-May-15 07:33N 54°59' E 013°41'1514.6
2016-May-15 06:33N 55°05' E 014°04'1615.6
2016-May-15 05:33N 55°16' E 014°23'1515.5
2016-May-15 04:33N 55°28' E 014°42'1615.5
2016-May-15 03:33N 55°36' E 015°05'  

Dump ship's entire track history